createdAt,value
2022-11-16T00:02:07.761Z,976.7
2022-11-16T00:07:26.489Z,976.7
2022-11-16T00:12:46.066Z,976.7
2022-11-16T00:18:05.759Z,976.8
2022-11-16T00:23:25.271Z,976.9
2022-11-16T00:28:44.651Z,976.8
2022-11-16T00:34:03.853Z,976.8
2022-11-16T00:39:23.207Z,976.8
2022-11-16T00:44:42.317Z,976.9
2022-11-16T00:50:01.046Z,976.8
2022-11-16T00:55:19.918Z,976.7
2022-11-16T01:00:38.734Z,976.7
2022-11-16T01:05:58.054Z,976.7
2022-11-16T01:11:17.641Z,976.7
2022-11-16T01:16:37.142Z,976.7
2022-11-16T01:21:56.859Z,976.6
2022-11-16T01:27:16.284Z,976.7
2022-11-16T01:32:35.379Z,976.6
2022-11-16T01:37:54.295Z,976.6
2022-11-16T01:43:21.644Z,976.5
2022-11-16T01:48:33.358Z,976.4
2022-11-16T01:53:52.022Z,976.4
2022-11-16T01:59:11.248Z,976.4
2022-11-16T02:04:30.995Z,976.4
2022-11-16T02:09:49.956Z,976.4
2022-11-16T02:15:09.633Z,976.3
2022-11-16T02:20:29.001Z,976.3
2022-11-16T02:25:48.643Z,976.3
2022-11-16T02:31:08.301Z,976.3
2022-11-16T02:36:28.006Z,976.2
2022-11-16T02:41:46.880Z,976.1
2022-11-16T02:47:06.005Z,976
2022-11-16T02:52:25.218Z,976
2022-11-16T02:57:44.768Z,976
2022-11-16T03:03:04.134Z,975.9
2022-11-16T03:08:23.057Z,975.9
2022-11-16T03:13:42.756Z,975.7
2022-11-16T03:19:02.491Z,975.6
2022-11-16T03:24:21.803Z,975.7
2022-11-16T03:29:40.912Z,975.6
2022-11-16T03:35:00.365Z,975.5
2022-11-16T03:40:19.752Z,975.6
2022-11-16T03:45:39.011Z,975.7
2022-11-16T03:50:58.212Z,975.7
2022-11-16T03:56:17.173Z,975.8
2022-11-16T04:01:39.241Z,975.8
2022-11-16T04:06:55.081Z,975.8
2022-11-16T04:12:14.163Z,975.7
2022-11-16T04:17:33.751Z,975.7
2022-11-16T04:22:53.162Z,975.7
2022-11-16T04:28:12.821Z,975.7
2022-11-16T04:33:32.455Z,975.7
2022-11-16T04:39:01.241Z,975.7
2022-11-16T04:44:10.397Z,975.8
2022-11-16T04:49:30.136Z,975.8
2022-11-16T04:54:49.855Z,975.8
2022-11-16T05:00:16.889Z,975.8
2022-11-16T05:05:27.882Z,975.7
2022-11-16T05:10:56.162Z,975.6
2022-11-16T05:16:06.754Z,975.8
2022-11-16T05:21:25.725Z,975.8
2022-11-16T05:26:44.527Z,975.8
2022-11-16T05:32:04.078Z,975.8
2022-11-16T05:37:23.493Z,975.7
2022-11-16T05:42:42.712Z,975.7
2022-11-16T05:48:12.283Z,975.7
2022-11-16T05:53:21.472Z,975.8
2022-11-16T05:58:40.348Z,976
2022-11-16T06:03:59.174Z,976
2022-11-16T06:09:26.451Z,975.9
2022-11-16T06:14:37.521Z,976
2022-11-16T06:19:56.814Z,975.9
2022-11-16T06:25:15.866Z,976
2022-11-16T06:30:35.161Z,976
2022-11-16T06:35:54.771Z,976.2
2022-11-16T06:41:13.844Z,976.2
2022-11-16T06:46:33.284Z,976.2
2022-11-16T06:51:52.806Z,976.3
2022-11-16T06:57:12.428Z,976.3
2022-11-16T07:02:31.530Z,976.3
2022-11-16T07:07:58.417Z,976.3
2022-11-16T07:13:18.726Z,976.4
2022-11-16T07:18:39.691Z,976.4
2022-11-16T07:23:48.920Z,976.4
2022-11-16T07:29:07.660Z,976.5
2022-11-16T07:34:26.659Z,976.6
2022-11-16T07:39:54.687Z,976.6
2022-11-16T07:45:05.346Z,976.7
2022-11-16T07:50:24.982Z,976.7
2022-11-16T07:55:44.258Z,976.8
2022-11-16T08:01:03.858Z,976.8
2022-11-16T08:06:22.524Z,976.9
2022-11-16T08:11:42.139Z,976.9
2022-11-16T08:17:01.069Z,976.9
2022-11-16T08:22:20.283Z,976.9
2022-11-16T08:27:40.007Z,977
2022-11-16T08:32:59.700Z,977
2022-11-16T08:38:18.172Z,976.9
2022-11-16T08:43:37.766Z,977
2022-11-16T08:48:57.004Z,977
2022-11-16T08:54:16.839Z,977.1
2022-11-16T08:59:35.756Z,977.1
2022-11-16T09:04:54.818Z,977.1
2022-11-16T09:10:14.736Z,977.2
2022-11-16T09:15:34.177Z,977.3
2022-11-16T09:21:02.531Z,977.4
2022-11-16T09:26:12.870Z,977.3
2022-11-16T09:31:32.286Z,977.3
2022-11-16T09:36:51.774Z,977.3
2022-11-16T09:42:10.610Z,977.4
2022-11-16T09:47:29.319Z,977.4
2022-11-16T09:52:48.437Z,977.4
2022-11-16T09:58:07.733Z,977.4
2022-11-16T10:03:27.341Z,977.3
2022-11-16T10:08:46.572Z,977.4
2022-11-16T10:14:05.507Z,977.4
2022-11-16T10:19:24.891Z,977.4
2022-11-16T10:24:44.316Z,977.4
2022-11-16T10:30:37.413Z,977.4
2022-11-16T10:35:56.448Z,977.3
2022-11-16T10:41:15.424Z,977.2
2022-11-16T10:46:35.232Z,977.2
2022-11-16T10:51:54.300Z,977.1
2022-11-16T10:57:13.509Z,977.1
2022-11-16T11:02:32.694Z,977.2
2022-11-16T11:07:56.889Z,977.2
2022-11-16T11:13:12.085Z,977.2
2022-11-16T11:18:30.825Z,977.2
2022-11-16T11:23:49.821Z,977.1
2022-11-16T11:29:08.597Z,977.1
2022-11-16T11:34:27.920Z,977.1
2022-11-16T11:39:47.417Z,977
2022-11-16T11:45:07.086Z,977
2022-11-16T11:50:26.440Z,976.9
2022-11-16T11:55:45.296Z,976.9
2022-11-16T12:01:04.388Z,976.9
2022-11-16T12:06:23.748Z,976.9
2022-11-16T12:11:43.191Z,976.8
2022-11-16T12:17:02.292Z,976.8
2022-11-16T12:22:21.523Z,976.8
2022-11-16T12:27:40.498Z,976.8
2022-11-16T12:33:00.105Z,976.8
2022-11-16T12:38:24.952Z,976.7
2022-11-16T12:43:38.674Z,976.7
2022-11-16T12:48:58.070Z,976.7
2022-11-16T12:54:17.660Z,976.7
2022-11-16T12:59:36.489Z,976.6
2022-11-16T13:04:55.669Z,976.5
2022-11-16T13:11:29.827Z,976.5
2022-11-16T13:15:35.273Z,976.5
2022-11-16T13:20:54.810Z,976.5
2022-11-16T13:26:12.612Z,976.5
2022-11-16T13:31:32.107Z,976.4
2022-11-16T13:36:51.300Z,976.4
2022-11-16T13:42:10.075Z,976.3
2022-11-16T13:47:29.085Z,976.3
2022-11-16T13:53:19.864Z,976.3
2022-11-16T13:58:07.470Z,976.3
2022-11-16T14:03:26.794Z,976.3
2022-11-16T14:08:45.809Z,976.2
2022-11-16T14:14:05.461Z,976.1
2022-11-16T14:19:23.777Z,976.1
2022-11-16T14:24:43.256Z,976
2022-11-16T14:30:02.820Z,976
2022-11-16T14:35:22.203Z,976.1
2022-11-16T14:40:41.204Z,976.1
2022-11-16T14:46:00.923Z,975.9
2022-11-16T14:51:19.694Z,975.9
2022-11-16T14:56:38.389Z,976
2022-11-16T15:01:57.333Z,975.9
2022-11-16T15:07:16.480Z,975.9
2022-11-16T15:12:35.340Z,975.9
2022-11-16T15:17:54.614Z,975.8
2022-11-16T15:23:14.066Z,975.8
2022-11-16T15:28:33.706Z,975.7
2022-11-16T15:33:52.841Z,975.8
2022-11-16T15:39:12.304Z,975.8
2022-11-16T15:44:32.022Z,975.9
2022-11-16T15:49:51.478Z,975.9
2022-11-16T15:55:10.754Z,975.8
2022-11-16T16:00:30.058Z,975.7
2022-11-16T16:05:49.359Z,975.7
2022-11-16T16:11:08.258Z,975.7
2022-11-16T16:16:27.968Z,975.7
2022-11-16T16:21:46.791Z,975.7
2022-11-16T16:27:06.355Z,975.7
2022-11-16T16:32:26.053Z,975.8
2022-11-16T16:37:45.588Z,975.6
2022-11-16T16:43:13.999Z,975.6
2022-11-16T16:48:24.148Z,975.6
2022-11-16T16:53:43.059Z,975.5
2022-11-16T16:59:02.783Z,975.4
2022-11-16T17:04:32.131Z,975.5
2022-11-16T17:09:41.038Z,975.5
2022-11-16T17:15:00.000Z,975.4
2022-11-16T17:20:19.464Z,975.5
2022-11-16T17:25:38.971Z,975.3
2022-11-16T17:30:58.074Z,975.3
2022-11-16T17:36:17.127Z,975.2
2022-11-16T17:41:36.176Z,975.2
2022-11-16T17:46:55.828Z,975.2
2022-11-16T17:52:15.091Z,975.2
2022-11-16T17:57:34.118Z,975.2
2022-11-16T18:02:53.645Z,975
2022-11-16T18:08:12.825Z,975.1
2022-11-16T18:13:31.652Z,975
2022-11-16T18:18:50.414Z,975
2022-11-16T18:24:09.925Z,975
2022-11-16T18:29:28.932Z,974.9
2022-11-16T18:34:48.587Z,974.9
2022-11-16T18:40:07.487Z,974.8
2022-11-16T18:45:27.152Z,974.7
2022-11-16T18:50:45.907Z,974.7
2022-11-16T18:56:05.433Z,974.5
2022-11-16T19:01:24.570Z,974.3
2022-11-16T19:06:44.829Z,974.3
2022-11-16T19:12:04.393Z,974.2
2022-11-16T19:17:22.459Z,974.2
2022-11-16T19:22:41.224Z,974.1
2022-11-16T19:28:00.702Z,974
2022-11-16T19:33:19.712Z,974
2022-11-16T19:38:39.302Z,974
2022-11-16T19:43:58.923Z,974.1
2022-11-16T19:49:20.068Z,974.1
2022-11-16T19:54:37.341Z,974.2
2022-11-16T19:59:57.019Z,974.3
2022-11-16T20:05:16.096Z,974.2
2022-11-16T20:10:35.239Z,974.2
2022-11-16T20:16:04.930Z,974.2
2022-11-16T20:21:13.790Z,974.1
2022-11-16T20:26:33.184Z,974.1
2022-11-16T20:31:52.021Z,974.1
2022-11-16T20:37:11.643Z,974.2
2022-11-16T20:42:30.392Z,974.2
2022-11-16T20:47:49.410Z,974.3
2022-11-16T20:53:08.814Z,974.3
2022-11-16T20:58:27.767Z,974.2
2022-11-16T21:03:47.036Z,974
2022-11-16T21:09:06.496Z,973.9
2022-11-16T21:14:26.248Z,973.8
2022-11-16T21:19:59.717Z,973.7
2022-11-16T21:25:04.502Z,973.8
2022-11-16T21:30:24.640Z,973.8
2022-11-16T21:35:43.403Z,973.7
2022-11-16T21:41:01.638Z,973.6
2022-11-16T21:46:20.940Z,973.5
2022-11-16T21:51:40.303Z,973.5
2022-11-16T21:56:59.649Z,973.4
2022-11-16T22:02:19.373Z,973.4
2022-11-16T22:07:38.588Z,973.3
2022-11-16T22:12:57.369Z,973.2
2022-11-16T22:18:16.750Z,973.2
2022-11-16T22:23:36.535Z,973.2
2022-11-16T22:28:55.580Z,973.2
2022-11-16T22:34:15.322Z,973.3
2022-11-16T22:39:35.045Z,973.2
2022-11-16T22:44:54.739Z,973.1
2022-11-16T22:50:14.279Z,973.1
2022-11-16T22:55:34.008Z,972.9
2022-11-16T23:00:52.877Z,972.9
2022-11-16T23:06:12.164Z,972.8
2022-11-16T23:11:31.312Z,972.9
2022-11-16T23:16:50.364Z,972.8
2022-11-16T23:22:09.494Z,972.9
2022-11-16T23:27:28.463Z,972.9
2022-11-16T23:32:47.664Z,972.9
2022-11-16T23:38:06.759Z,972.8
2022-11-16T23:43:26.098Z,972.6
2022-11-16T23:48:45.548Z,972.5
2022-11-16T23:54:05.517Z,972.4
2022-11-16T23:59:24.786Z,972.4
